createdAt,value
2022-10-05T00:00:24.492Z,1.80
2022-10-05T00:02:54.053Z,1.27
2022-10-05T00:05:31.831Z,1.30
2022-10-05T00:08:19.560Z,1.67
2022-10-05T00:10:47.196Z,1.63
2022-10-05T00:13:20.668Z,1.33
2022-10-05T00:15:49.491Z,1.48
2022-10-05T00:18:19.510Z,1.33
2022-10-05T00:20:48.150Z,1.38
2022-10-05T00:23:21.734Z,1.50
2022-10-05T00:25:49.445Z,1.45
2022-10-05T00:28:30.174Z,1.60
2022-10-05T00:30:59.166Z,1.50
2022-10-05T00:33:27.927Z,1.58
2022-10-05T00:35:55.920Z,1.88
2022-10-05T00:38:23.933Z,1.77
2022-10-05T00:41:24.843Z,1.17
2022-10-05T00:44:04.278Z,1.65
2022-10-05T00:46:52.860Z,1.85
2022-10-05T00:49:49.696Z,1.67
2022-10-05T00:52:22.029Z,1.48
2022-10-05T00:55:03.653Z,2.28
2022-10-05T00:57:41.372Z,1.42
2022-10-05T01:00:17.174Z,1.48
2022-10-05T01:02:47.710Z,1.75
2022-10-05T01:05:18.314Z,1.80
2022-10-05T01:08:00.973Z,1.23
2022-10-05T01:11:01.457Z,1.42
2022-10-05T01:13:43.377Z,1.20
2022-10-05T01:16:20.956Z,1.17
2022-10-05T01:19:26.641Z,1.15
2022-10-05T01:22:03.794Z,1.08
2022-10-05T01:24:42.474Z,1.20
2022-10-05T01:27:19.436Z,1.23
2022-10-05T01:29:46.891Z,1.50
2022-10-05T01:32:23.913Z,1.60
2022-10-05T01:35:03.691Z,1.30
2022-10-05T01:37:36.529Z,1.20
2022-10-05T01:40:12.850Z,1.10
2022-10-05T01:43:04.819Z,0.80
2022-10-05T01:45:43.670Z,0.95
2022-10-05T01:48:52.162Z,0.95
2022-10-05T01:51:47.368Z,1.15
2022-10-05T01:54:20.867Z,1.00
2022-10-05T01:57:13.837Z,1.27
2022-10-05T01:59:44.249Z,0.73
2022-10-05T02:02:17.121Z,1.30
2022-10-05T02:05:01.779Z,1.58
2022-10-05T02:07:47.741Z,0.87
2022-10-05T02:10:22.449Z,1.40
2022-10-05T02:12:54.745Z,1.08
2022-10-05T02:15:45.765Z,0.90
2022-10-05T02:18:28.972Z,1.30
2022-10-05T02:20:58.727Z,1.17
2022-10-05T02:23:33.553Z,1.13
2022-10-05T02:26:01.742Z,1.00
2022-10-05T02:28:52.621Z,1.00
2022-10-05T02:31:40.530Z,1.48
2022-10-05T02:34:40.177Z,0.90
2022-10-05T02:37:44.460Z,0.80
2022-10-05T02:40:33.919Z,0.73
2022-10-05T02:43:23.862Z,1.00
2022-10-05T02:45:57.693Z,0.70
2022-10-05T02:48:50.780Z,0.77
2022-10-05T02:51:28.350Z,1.00
2022-10-05T02:54:14.326Z,0.90
2022-10-05T02:56:48.153Z,0.63
2022-10-05T02:59:32.217Z,0.80
2022-10-05T03:02:26.728Z,1.30
2022-10-05T03:05:25.444Z,1.60
2022-10-05T03:08:33.066Z,2.00
2022-10-05T03:11:11.286Z,1.90
2022-10-05T03:14:03.449Z,2.20
2022-10-05T03:16:55.414Z,2.72
2022-10-05T03:19:38.094Z,2.67
2022-10-05T03:22:17.704Z,2.65
2022-10-05T03:24:59.224Z,2.47
2022-10-05T03:27:26.759Z,2.03
2022-10-05T03:29:58.432Z,2.22
2022-10-05T03:32:45.564Z,2.53
2022-10-05T03:35:23.743Z,2.05
2022-10-05T03:38:13.333Z,2.33
2022-10-05T03:40:46.938Z,1.83
2022-10-05T03:43:36.100Z,1.98
2022-10-05T03:46:21.038Z,1.55
2022-10-05T03:48:59.086Z,1.33
2022-10-05T03:51:42.802Z,2.00
2022-10-05T03:54:28.690Z,1.45
2022-10-05T03:57:00.724Z,1.30
2022-10-05T04:00:03.132Z,1.60
2022-10-05T04:02:46.637Z,1.38
2022-10-05T04:05:21.827Z,0.95
2022-10-05T04:08:02.888Z,0.70
2022-10-05T04:10:44.085Z,0.70
2022-10-05T04:13:15.004Z,0.60
2022-10-05T04:15:51.586Z,0.60
2022-10-05T04:18:19.250Z,0.65
2022-10-05T04:20:53.351Z,0.50
2022-10-05T04:23:33.616Z,0.70
2022-10-05T04:26:10.980Z,0.45
2022-10-05T04:29:14.239Z,0.80
2022-10-05T04:32:20.526Z,0.60
2022-10-05T04:34:59.548Z,0.40
2022-10-05T04:37:46.634Z,0.43
2022-10-05T04:40:39.596Z,0.40
2022-10-05T04:43:14.042Z,0.50
2022-10-05T04:45:48.448Z,0.30
2022-10-05T04:48:22.253Z,0.25
2022-10-05T04:51:17.068Z,0.40
2022-10-05T04:54:12.228Z,0.30
2022-10-05T04:56:49.724Z,0.70
2022-10-05T04:59:20.266Z,0.60
2022-10-05T05:01:47.896Z,0.60
2022-10-05T05:04:35.569Z,0.90
2022-10-05T05:07:43.548Z,0.70
2022-10-05T05:10:35.651Z,0.50
2022-10-05T05:13:09.728Z,0.80
2022-10-05T05:15:42.083Z,0.60
2022-10-05T05:18:46.020Z,0.70
2022-10-05T05:21:36.361Z,0.57
2022-10-05T05:24:30.234Z,0.45
2022-10-05T05:27:09.721Z,0.40
2022-10-05T05:29:49.626Z,0.30
2022-10-05T05:32:30.042Z,0.43
2022-10-05T05:35:07.115Z,0.40
2022-10-05T05:38:04.527Z,0.30
2022-10-05T05:41:02.383Z,0.55
2022-10-05T05:43:54.898Z,0.60
2022-10-05T05:47:01.580Z,0.50
2022-10-05T05:49:40.179Z,0.25
2022-10-05T05:52:20.288Z,0.60
2022-10-05T05:54:53.730Z,0.30
2022-10-05T05:57:30.555Z,0.30
2022-10-05T06:00:06.955Z,0.30
2022-10-05T06:03:04.218Z,0.20
2022-10-05T06:05:40.702Z,0.20
2022-10-05T06:08:49.834Z,0.30
2022-10-05T06:12:12.085Z,0.30
2022-10-05T06:14:52.876Z,0.25
2022-10-05T06:17:41.349Z,0.60
2022-10-05T06:20:22.369Z,0.47
2022-10-05T06:22:51.417Z,0.30
2022-10-05T06:25:44.939Z,0.55
2022-10-05T06:28:15.027Z,0.40
2022-10-05T06:31:15.326Z,0.50
2022-10-05T06:33:54.489Z,0.50
2022-10-05T06:36:45.802Z,0.30
2022-10-05T06:39:51.021Z,0.40
2022-10-05T06:42:54.411Z,0.52
2022-10-05T06:45:53.038Z,0.70
2022-10-05T06:48:46.630Z,0.55
2022-10-05T06:52:12.812Z,0.75
2022-10-05T06:55:02.702Z,0.60
2022-10-05T06:57:36.660Z,0.40
2022-10-05T07:00:20.722Z,0.60
2022-10-05T07:02:56.205Z,0.60
2022-10-05T07:05:47.922Z,0.63
2022-10-05T07:08:49.668Z,0.60
2022-10-05T07:11:20.031Z,0.63
2022-10-05T07:14:06.839Z,0.80
2022-10-05T07:16:58.974Z,1.10
2022-10-05T07:19:36.655Z,0.60
2022-10-05T07:22:34.264Z,0.82
2022-10-05T07:25:28.859Z,0.73
2022-10-05T07:28:26.388Z,0.50
2022-10-05T07:31:14.078Z,0.75
2022-10-05T07:34:06.977Z,0.60
2022-10-05T07:37:22.399Z,0.40
2022-10-05T07:40:09.605Z,2.15
2022-10-05T07:42:57.010Z,0.80
2022-10-05T07:45:56.767Z,0.73
2022-10-05T07:48:38.251Z,0.52
2022-10-05T07:51:26.032Z,0.73
2022-10-05T07:54:15.846Z,0.82
2022-10-05T07:56:49.297Z,0.65
2022-10-05T07:59:29.601Z,0.70
2022-10-05T08:02:13.837Z,0.50
2022-10-05T08:04:52.259Z,0.60
2022-10-05T08:09:58.488Z,0.70
2022-10-05T08:12:25.940Z,0.75
2022-10-05T08:15:15.679Z,0.50
2022-10-05T08:17:55.911Z,0.50
2022-10-05T08:20:40.242Z,0.52
2022-10-05T08:23:25.779Z,0.60
2022-10-05T08:26:05.259Z,0.80
2022-10-05T08:28:57.229Z,0.73
2022-10-05T08:31:32.800Z,0.50
2022-10-05T08:34:20.253Z,0.70
2022-10-05T08:37:12.758Z,1.00
2022-10-05T08:40:11.775Z,0.73
2022-10-05T08:42:57.890Z,0.60
2022-10-05T08:45:52.931Z,0.80
2022-10-05T08:48:56.287Z,1.35
2022-10-05T08:51:57.017Z,1.00
2022-10-05T08:55:01.058Z,0.80
2022-10-05T08:58:13.528Z,0.95
2022-10-05T09:01:25.186Z,0.90
2022-10-05T09:04:13.614Z,0.88
2022-10-05T09:07:18.278Z,0.80
2022-10-05T09:10:23.058Z,0.70
2022-10-05T09:12:59.194Z,0.60
2022-10-05T09:15:57.548Z,0.52
2022-10-05T09:18:33.685Z,0.40
2022-10-05T09:21:20.946Z,0.45
2022-10-05T09:24:06.050Z,0.50
2022-10-05T09:26:53.061Z,0.60
2022-10-05T09:29:58.947Z,0.68
2022-10-05T09:33:07.401Z,0.40
2022-10-05T09:35:53.584Z,0.57
2022-10-05T09:38:51.575Z,0.60
2022-10-05T09:41:27.931Z,0.65
2022-10-05T09:44:30.308Z,0.50
2022-10-05T09:47:34.536Z,0.68
2022-10-05T09:50:42.624Z,0.68
2022-10-05T09:53:32.936Z,0.73
2022-10-05T09:56:34.579Z,0.40
2022-10-05T09:59:37.964Z,0.63
2022-10-05T10:02:18.773Z,0.50
2022-10-05T10:05:20.159Z,0.90
2022-10-05T10:08:25.351Z,0.50
2022-10-05T10:10:55.825Z,0.50
2022-10-05T10:13:29.480Z,0.60
2022-10-05T10:16:18.680Z,0.55
2022-10-05T10:18:46.103Z,1.20
2022-10-05T10:21:58.597Z,0.90
2022-10-05T10:24:47.368Z,0.55
2022-10-05T10:27:23.725Z,0.50
2022-10-05T10:29:59.500Z,0.52
2022-10-05T10:32:47.888Z,0.47
2022-10-05T10:35:33.950Z,0.50
2022-10-05T10:38:07.438Z,0.63
2022-10-05T10:40:59.798Z,0.65
2022-10-05T10:43:41.110Z,0.80
2022-10-05T10:46:20.556Z,0.22
2022-10-05T10:49:15.746Z,0.55
2022-10-05T10:52:19.585Z,0.65
2022-10-05T10:55:04.579Z,0.55
2022-10-05T10:57:57.067Z,0.60
2022-10-05T11:00:24.698Z,0.55
2022-10-05T11:03:10.319Z,0.40
2022-10-05T11:06:09.645Z,0.40
2022-10-05T11:08:46.516Z,0.43
2022-10-05T11:11:32.704Z,0.55
2022-10-05T11:14:35.894Z,0.40
2022-10-05T11:17:35.064Z,0.50
2022-10-05T11:20:23.599Z,0.57
2022-10-05T11:23:19.861Z,0.60
2022-10-05T11:26:29.786Z,0.30
2022-10-05T11:29:34.447Z,0.40
2022-10-05T11:32:13.852Z,0.43
2022-10-05T11:34:53.175Z,0.45
2022-10-05T11:37:26.770Z,0.52
2022-10-05T11:40:11.383Z,0.40
2022-10-05T11:43:15.457Z,0.70
2022-10-05T11:45:58.898Z,0.40
2022-10-05T11:48:41.541Z,0.52
2022-10-05T11:51:14.941Z,0.57
2022-10-05T11:54:06.516Z,0.60
2022-10-05T11:56:41.966Z,0.45
2022-10-05T11:59:21.840Z,0.75
2022-10-05T12:02:18.070Z,0.60
2022-10-05T12:05:10.833Z,0.70
2022-10-05T12:07:47.178Z,0.60
2022-10-05T12:10:32.729Z,1.00
2022-10-05T12:13:03.179Z,0.70
2022-10-05T12:15:33.548Z,0.88
2022-10-05T12:18:41.235Z,0.65
2022-10-05T12:21:18.508Z,0.77
2022-10-05T12:23:58.946Z,0.70
2022-10-05T12:26:40.689Z,0.90
2022-10-05T12:29:26.728Z,0.57
2022-10-05T12:32:12.735Z,0.70
2022-10-05T12:34:45.978Z,0.80
2022-10-05T12:37:39.202Z,0.80
2022-10-05T12:40:39.971Z,1.00
2022-10-05T12:43:39.813Z,1.08
2022-10-05T12:46:22.175Z,0.93
2022-10-05T12:49:14.003Z,1.23
2022-10-05T12:51:58.412Z,1.60
2022-10-05T12:54:39.401Z,1.00
2022-10-05T12:57:44.248Z,1.00
2022-10-05T13:00:22.738Z,0.80
2022-10-05T13:03:05.142Z,0.90
2022-10-05T13:06:00.258Z,0.90
2022-10-05T13:08:50.846Z,0.80
2022-10-05T13:11:29.448Z,0.80
2022-10-05T13:14:16.529Z,0.80
2022-10-05T13:17:14.507Z,0.80
2022-10-05T13:19:46.743Z,0.73
2022-10-05T13:22:16.987Z,0.90
2022-10-05T13:24:52.487Z,1.25
2022-10-05T13:27:40.837Z,0.90
2022-10-05T13:30:20.140Z,0.63
2022-10-05T13:32:59.963Z,0.80
2022-10-05T13:35:46.295Z,0.82
2022-10-05T13:38:42.055Z,1.20
2022-10-05T13:41:32.072Z,0.80
2022-10-05T13:44:24.633Z,1.10
2022-10-05T13:46:58.312Z,0.90
2022-10-05T13:49:38.984Z,0.88
2022-10-05T13:52:07.964Z,1.20
2022-10-05T13:54:47.737Z,1.00
2022-10-05T13:57:36.244Z,0.75
2022-10-05T14:00:15.361Z,1.45
2022-10-05T14:02:47.316Z,1.20
2022-10-05T14:05:14.918Z,1.00
2022-10-05T14:08:05.136Z,1.40
2022-10-05T14:10:35.467Z,1.10
2022-10-05T14:13:33.812Z,1.20
2022-10-05T14:16:13.517Z,1.17
2022-10-05T14:19:09.163Z,1.20
2022-10-05T14:22:03.755Z,1.00
2022-10-05T14:24:50.835Z,0.90
2022-10-05T14:27:36.503Z,1.00
2022-10-05T14:30:12.618Z,1.03
2022-10-05T14:32:56.271Z,1.00
2022-10-05T14:35:26.211Z,0.70
2022-10-05T14:38:02.726Z,0.90
2022-10-05T14:40:33.212Z,0.82
2022-10-05T14:43:15.107Z,0.80
2022-10-05T14:45:56.687Z,1.80
2022-10-05T14:48:29.207Z,1.42
2022-10-05T14:50:59.420Z,1.00
2022-10-05T14:53:44.048Z,0.90
2022-10-05T14:56:30.298Z,0.50
2022-10-05T14:59:15.867Z,0.90
2022-10-05T15:02:12.773Z,0.70
2022-10-05T15:07:29.267Z,0.63
2022-10-05T15:10:36.528Z,0.90
2022-10-05T15:13:18.435Z,0.73
2022-10-05T15:15:45.914Z,0.70
2022-10-05T15:18:30.962Z,0.80
2022-10-05T15:21:06.213Z,0.60
2022-10-05T15:23:48.094Z,0.60
2022-10-05T15:26:30.646Z,0.65
2022-10-05T15:29:36.206Z,0.73
2022-10-05T15:32:21.829Z,0.60
2022-10-05T15:35:24.679Z,0.43
2022-10-05T15:38:26.579Z,0.60
2022-10-05T15:41:30.219Z,0.50
2022-10-05T15:44:26.078Z,0.60
2022-10-05T15:47:03.965Z,0.70
2022-10-05T15:49:37.070Z,1.05
2022-10-05T15:52:25.500Z,1.10
2022-10-05T15:55:25.525Z,0.60
2022-10-05T15:58:01.611Z,1.05
2022-10-05T16:00:33.388Z,0.70
2022-10-05T16:03:13.133Z,0.60
2022-10-05T16:06:38.359Z,0.80
2022-10-05T16:09:44.761Z,0.80
2022-10-05T16:12:38.192Z,0.73
2022-10-05T16:15:38.898Z,0.60
2022-10-05T16:18:29.066Z,0.90
2022-10-05T16:21:20.802Z,0.57
2022-10-05T16:24:06.304Z,0.77
2022-10-05T16:26:55.247Z,1.23
2022-10-05T16:29:25.847Z,0.80
2022-10-05T16:31:59.457Z,1.13
2022-10-05T16:34:45.177Z,0.80
2022-10-05T16:37:34.341Z,1.00
2022-10-05T16:40:32.247Z,0.82
2022-10-05T16:43:27.364Z,0.85
2022-10-05T16:46:10.493Z,0.93
2022-10-05T16:48:56.829Z,0.93
2022-10-05T16:51:30.171Z,0.93
2022-10-05T16:54:21.660Z,1.10
2022-10-05T16:57:02.549Z,1.30
2022-10-05T16:59:35.844Z,1.23
2022-10-05T17:02:27.893Z,1.45
2022-10-05T17:05:21.580Z,1.17
2022-10-05T17:08:10.491Z,1.27
2022-10-05T17:11:02.433Z,1.10
2022-10-05T17:13:47.810Z,1.45
2022-10-05T17:16:33.433Z,1.40
2022-10-05T17:19:19.314Z,1.10
2022-10-05T17:22:00.935Z,1.02
2022-10-05T17:25:06.204Z,1.15
2022-10-05T17:27:53.144Z,1.40
2022-10-05T17:30:20.812Z,1.80
2022-10-05T17:33:04.723Z,2.00
2022-10-05T17:36:12.450Z,2.75
2022-10-05T17:39:12.270Z,2.30
2022-10-05T17:41:39.916Z,1.65
2022-10-05T17:44:10.347Z,2.85
2022-10-05T17:46:47.566Z,1.40
2022-10-05T17:50:16.353Z,0.80
2022-10-05T17:53:03.590Z,0.90
2022-10-05T17:55:34.281Z,1.27
2022-10-05T17:58:24.651Z,1.30
2022-10-05T18:00:58.117Z,2.30
2022-10-05T18:03:37.903Z,1.95
2022-10-05T18:06:37.350Z,1.60
2022-10-05T18:09:36.200Z,1.60
2022-10-05T18:12:11.849Z,1.50
2022-10-05T18:14:57.397Z,0.90
2022-10-05T18:17:57.328Z,1.23
2022-10-05T18:20:26.431Z,1.30
2022-10-05T18:23:09.509Z,0.80
2022-10-05T18:25:39.742Z,0.82
2022-10-05T18:28:26.128Z,1.05
2022-10-05T18:34:05.007Z,0.88
2022-10-05T18:37:23.180Z,1.27
2022-10-05T18:40:09.718Z,1.40
2022-10-05T18:45:24.515Z,1.42
2022-10-05T18:48:05.571Z,1.10
2022-10-05T18:51:06.402Z,1.10
2022-10-05T18:53:45.886Z,1.00
2022-10-05T18:56:45.553Z,1.20
2022-10-05T18:59:42.188Z,1.38
2022-10-05T19:02:34.185Z,1.00
2022-10-05T19:05:47.001Z,1.20
2022-10-05T19:08:30.209Z,0.90
2022-10-05T19:11:15.475Z,1.10
2022-10-05T19:14:05.541Z,1.30
2022-10-05T19:16:35.906Z,1.30
2022-10-05T19:19:33.345Z,1.13
2022-10-05T19:22:35.281Z,1.20
2022-10-05T19:25:18.263Z,1.60
2022-10-05T19:28:04.816Z,1.63
2022-10-05T19:31:01.449Z,1.83
2022-10-05T19:33:29.114Z,2.17
2022-10-05T19:36:17.335Z,2.15
2022-10-05T19:39:08.775Z,2.53
2022-10-05T19:42:10.143Z,1.80
2022-10-05T19:45:16.074Z,1.80
2022-10-05T19:48:21.307Z,1.88
2022-10-05T19:50:57.530Z,1.40
2022-10-05T19:53:37.093Z,1.40
2022-10-05T19:56:26.317Z,1.48
2022-10-05T19:58:56.550Z,1.58
2022-10-05T20:01:34.127Z,1.40
2022-10-05T20:04:01.878Z,1.52
2022-10-05T20:06:29.729Z,1.42
2022-10-05T20:09:00.340Z,1.35
2022-10-05T20:11:29.169Z,1.25
2022-10-05T20:14:02.440Z,1.45
2022-10-05T20:16:50.367Z,1.35
2022-10-05T20:19:51.791Z,1.30
2022-10-05T20:22:32.962Z,1.50
2022-10-05T20:25:20.700Z,1.38
2022-10-05T20:27:51.842Z,1.77
2022-10-05T20:30:25.026Z,1.38
2022-10-05T20:32:57.621Z,1.40
2022-10-05T20:35:28.858Z,1.20
2022-10-05T20:38:00.884Z,1.20
2022-10-05T20:40:30.030Z,0.95
2022-10-05T20:42:58.465Z,1.10
2022-10-05T20:45:26.019Z,0.80
2022-10-05T20:47:53.559Z,0.80
2022-10-05T20:50:22.280Z,0.85
2022-10-05T20:52:49.826Z,0.90
2022-10-05T20:55:17.364Z,1.10
2022-10-05T20:57:46.226Z,1.20
2022-10-05T21:00:14.127Z,0.88
2022-10-05T21:02:41.580Z,0.85
2022-10-05T21:05:09.680Z,0.80
2022-10-05T21:07:37.213Z,0.73
2022-10-05T21:10:05.130Z,1.00
2022-10-05T21:12:34.733Z,0.98
2022-10-05T21:15:04.684Z,0.95
2022-10-05T21:17:34.721Z,1.10
2022-10-05T21:20:02.216Z,1.42
2022-10-05T21:22:29.636Z,1.00
2022-10-05T21:24:57.064Z,1.20
2022-10-05T21:27:25.052Z,0.90
2022-10-05T21:29:52.574Z,0.90
2022-10-05T21:32:20.146Z,0.75
2022-10-05T21:34:47.757Z,0.90
2022-10-05T21:37:15.461Z,0.95
2022-10-05T21:39:43.031Z,0.82
2022-10-05T21:42:10.417Z,0.88
2022-10-05T21:44:37.832Z,1.05
2022-10-05T21:47:06.992Z,0.90
2022-10-05T21:49:35.407Z,1.00
2022-10-05T21:52:05.360Z,1.30
2022-10-05T21:54:33.882Z,1.00
2022-10-05T21:57:01.986Z,1.30
2022-10-05T21:59:32.711Z,1.33
2022-10-05T22:02:00.814Z,1.27
2022-10-05T22:04:28.603Z,1.40
2022-10-05T22:06:56.512Z,1.10
2022-10-05T22:09:24.060Z,1.00
2022-10-05T22:11:51.770Z,0.80
2022-10-05T22:14:19.176Z,0.88
2022-10-05T22:16:46.727Z,0.75
2022-10-05T22:19:17.830Z,0.80
2022-10-05T22:21:45.459Z,1.10
2022-10-05T22:24:12.946Z,0.80
2022-10-05T22:26:43.731Z,0.98
2022-10-05T22:29:11.348Z,0.80
2022-10-05T22:31:39.348Z,0.90
2022-10-05T22:34:07.051Z,1.00
2022-10-05T22:36:35.455Z,0.90
2022-10-05T22:39:03.301Z,1.05
2022-10-05T22:41:30.781Z,1.35
2022-10-05T22:43:58.286Z,0.98
2022-10-05T22:46:25.947Z,0.85
2022-10-05T22:48:53.442Z,1.23
2022-10-05T22:51:20.944Z,0.90
2022-10-05T22:53:48.355Z,0.68
2022-10-05T22:56:16.077Z,1.30
2022-10-05T22:58:44.526Z,0.82
2022-10-05T23:01:15.986Z,0.60
2022-10-05T23:03:44.443Z,0.80
2022-10-05T23:06:14.753Z,0.85
2022-10-05T23:08:42.943Z,0.70
2022-10-05T23:11:15.183Z,0.80
2022-10-05T23:13:43.061Z,0.70
2022-10-05T23:16:13.565Z,0.90
2022-10-05T23:18:41.688Z,0.82
2022-10-05T23:21:10.482Z,0.60
2022-10-05T23:23:42.872Z,1.00
2022-10-05T23:26:11.813Z,0.65
2022-10-05T23:28:40.744Z,0.60
2022-10-05T23:31:08.933Z,0.55
2022-10-05T23:33:36.443Z,0.70
2022-10-05T23:36:15.655Z,0.82
2022-10-05T23:38:43.629Z,0.50
2022-10-05T23:41:12.524Z,0.60
2022-10-05T23:43:40.547Z,1.02
2022-10-05T23:46:08.848Z,0.65
2022-10-05T23:48:39.974Z,0.90
2022-10-05T23:51:09.575Z,0.70
2022-10-05T23:53:37.575Z,0.90
2022-10-05T23:56:05.289Z,0.82
2022-10-05T23:58:32.777Z,0.70
